createdAt,value
2022-09-27T03:42:39.783Z,13.00
2022-09-27T03:45:45.317Z,14.35
2022-09-27T03:48:48.464Z,11.43
2022-09-27T03:51:51.133Z,13.27
2022-09-27T03:54:57.378Z,13.13
2022-09-27T03:58:02.489Z,12.07
2022-09-27T04:01:07.971Z,11.82
2022-09-27T04:04:11.554Z,11.05
2022-09-27T04:07:14.386Z,10.93
2022-09-27T04:10:17.630Z,11.15
2022-09-27T04:13:20.570Z,13.68
2022-09-27T04:16:28.516Z,11.82
2022-09-27T04:19:31.877Z,11.63
2022-09-27T04:22:35.605Z,12.73
2022-09-27T04:25:39.864Z,12.57
2022-09-27T04:28:43.473Z,11.75
2022-09-27T04:31:47.191Z,13.48
2022-09-27T04:35:09.903Z,12.80
2022-09-27T04:38:13.400Z,12.88
2022-09-27T04:41:16.580Z,13.13
2022-09-27T04:44:19.296Z,13.00
2022-09-27T04:47:23.060Z,12.50
2022-09-27T04:50:25.760Z,12.48
2022-09-27T04:53:37.634Z,13.93
2022-09-27T04:56:40.310Z,14.02
2022-09-27T04:59:43.539Z,13.57
2022-09-27T05:02:50.608Z,12.70
2022-09-27T05:05:55.519Z,13.05
2022-09-27T05:08:58.528Z,12.10
2022-09-27T05:12:01.863Z,12.65
2022-09-27T05:15:09.458Z,13.88
2022-09-27T05:18:14.511Z,13.85
2022-09-27T05:21:18.871Z,15.20
2022-09-27T05:24:22.012Z,14.30
2022-09-27T05:27:24.584Z,14.18
2022-09-27T05:30:27.803Z,15.18
2022-09-27T05:33:31.494Z,14.60
2022-09-27T05:36:38.381Z,15.77
2022-09-27T05:39:41.020Z,14.65
2022-09-27T05:42:43.911Z,14.98
2022-09-27T05:45:46.690Z,15.20
2022-09-27T05:48:49.907Z,15.43
2022-09-27T05:51:52.478Z,15.57
2022-09-27T05:54:55.380Z,14.80
2022-09-27T05:58:03.943Z,13.48
2022-09-27T06:01:08.494Z,13.70
2022-09-27T06:04:11.790Z,12.65
2022-09-27T06:07:17.367Z,13.27
2022-09-27T06:10:22.615Z,13.98
2022-09-27T06:13:26.847Z,13.13
2022-09-27T06:16:30.130Z,12.70
2022-09-27T06:19:32.835Z,12.93
2022-09-27T06:22:36.995Z,14.13
2022-09-27T06:25:41.387Z,13.75
2022-09-27T06:28:44.791Z,13.15
2022-09-27T06:31:47.545Z,12.88
2022-09-27T06:34:50.887Z,12.18
2022-09-27T06:37:54.311Z,13.52
2022-09-27T06:41:02.253Z,13.73
2022-09-27T06:44:05.563Z,14.02
2022-09-27T06:47:10.727Z,14.68
2022-09-27T06:50:15.641Z,12.95
2022-09-27T06:53:19.708Z,12.70
2022-09-27T06:56:22.466Z,12.13
2022-09-27T06:59:44.593Z,11.77
2022-09-27T07:02:52.118Z,10.73
2022-09-27T07:06:03.807Z,10.90
2022-09-27T07:09:07.007Z,10.32
2022-09-27T07:12:12.254Z,11.18
2022-09-27T07:15:15.621Z,11.20
2022-09-27T07:18:18.691Z,10.70
2022-09-27T07:21:21.716Z,10.45
2022-09-27T07:24:25.170Z,11.82
2022-09-27T07:27:28.807Z,11.63
2022-09-27T07:30:33.436Z,11.15
2022-09-27T07:33:39.913Z,10.75
2022-09-27T07:36:45.234Z,10.20
2022-09-27T07:39:47.979Z,11.45
2022-09-27T07:42:58.642Z,10.90
2022-09-27T07:46:01.454Z,10.27
2022-09-27T07:49:04.521Z,10.07
2022-09-27T07:52:07.844Z,9.73
2022-09-27T07:55:13.175Z,9.15
2022-09-27T07:58:22.232Z,9.82
2022-09-27T08:01:26.206Z,8.38
2022-09-27T08:04:29.558Z,8.43
2022-09-27T08:07:32.909Z,8.38
2022-09-27T08:10:36.663Z,8.40
2022-09-27T08:13:40.092Z,8.50
2022-09-27T08:16:43.159Z,9.10
2022-09-27T08:19:49.943Z,8.55
2022-09-27T08:22:56.721Z,7.80
2022-09-27T08:25:59.719Z,7.97
2022-09-27T08:29:03.132Z,8.25
2022-09-27T08:32:05.767Z,7.72
2022-09-27T08:35:09.285Z,7.55
2022-09-27T08:38:12.057Z,8.20
2022-09-27T08:41:34.213Z,7.00
2022-09-27T08:44:50.963Z,8.25
2022-09-27T08:47:58.864Z,8.00
2022-09-27T08:51:05.086Z,8.75
2022-09-27T08:54:20.091Z,8.80
2022-09-27T08:57:24.831Z,7.43
2022-09-27T09:00:29.514Z,7.65
2022-09-27T09:03:39.996Z,7.75
2022-09-27T09:06:45.776Z,8.00
2022-09-27T09:10:10.372Z,7.22
2022-09-27T09:13:25.899Z,7.62
2022-09-27T09:17:04.750Z,7.57
2022-09-27T09:20:25.717Z,7.15
2022-09-27T09:23:54.128Z,6.75
2022-09-27T09:27:26.149Z,7.05
2022-09-27T09:30:37.555Z,7.62
2022-09-27T09:33:51.231Z,7.07
2022-09-27T09:37:00.760Z,7.68
2022-09-27T09:40:31.564Z,7.90
2022-09-27T09:43:41.961Z,7.28
2022-09-27T09:46:53.797Z,7.50
2022-09-27T09:50:13.863Z,6.80
2022-09-27T09:53:37.316Z,6.65
2022-09-27T09:56:45.881Z,6.22
2022-09-27T10:00:17.279Z,7.28
2022-09-27T10:03:20.529Z,7.90
2022-09-27T10:06:25.489Z,7.85
2022-09-27T10:09:29.789Z,7.95
2022-09-27T10:12:35.285Z,7.50
2022-09-27T10:15:38.515Z,8.07
2022-09-27T10:18:46.287Z,7.72
2022-09-27T10:21:53.066Z,7.80
2022-09-27T10:25:01.258Z,7.22
2022-09-27T10:28:05.378Z,7.87
2022-09-27T10:31:11.393Z,7.72
2022-09-27T10:34:35.954Z,7.55
2022-09-27T10:37:38.735Z,9.20
2022-09-27T10:40:42.626Z,7.90
2022-09-27T10:43:46.544Z,8.20
2022-09-27T10:46:53.263Z,9.18
2022-09-27T10:50:05.134Z,8.68
2022-09-27T10:53:19.212Z,7.95
2022-09-27T10:56:34.227Z,7.60
2022-09-27T10:59:41.384Z,8.32
2022-09-27T11:02:44.247Z,7.28
2022-09-27T11:05:47.545Z,7.65
2022-09-27T11:08:54.451Z,7.78
2022-09-27T11:12:13.119Z,8.43
2022-09-27T11:15:19.209Z,7.25
2022-09-27T11:18:34.781Z,8.07
2022-09-27T11:21:45.848Z,8.05
2022-09-27T11:25:31.558Z,7.70
2022-09-27T11:29:07.791Z,7.03
2022-09-27T11:32:40.081Z,7.00
2022-09-27T11:36:13.845Z,7.78
2022-09-27T11:39:39.534Z,6.75
2022-09-27T11:42:57.032Z,6.95
2022-09-27T11:46:31.029Z,7.10
2022-09-27T11:49:48.529Z,7.47
2022-09-27T11:53:16.455Z,6.95
2022-09-27T11:56:42.407Z,7.10
2022-09-27T12:00:13.943Z,6.20
2022-09-27T12:03:43.071Z,6.55
2022-09-27T12:06:56.035Z,6.18
2022-09-27T12:10:03.797Z,6.22
2022-09-27T12:13:13.551Z,7.10
2022-09-27T12:16:21.199Z,6.93
2022-09-27T12:19:33.020Z,8.43
2022-09-27T12:23:00.150Z,6.22
2022-09-27T12:26:26.192Z,6.62
2022-09-27T12:29:33.956Z,6.32
2022-09-27T12:32:55.748Z,6.05
2022-09-27T12:36:06.358Z,7.50
2022-09-27T12:39:18.232Z,6.45
2022-09-27T12:42:28.311Z,6.35
2022-09-27T12:45:58.400Z,5.75
2022-09-27T12:49:11.065Z,6.05
2022-09-27T12:52:25.379Z,6.60
2022-09-27T12:55:39.767Z,6.37
2022-09-27T12:58:42.714Z,6.65
2022-09-27T13:01:49.396Z,6.97
2022-09-27T13:05:23.336Z,7.57
2022-09-27T13:09:14.058Z,8.88
2022-09-27T13:12:21.923Z,5.72
2022-09-27T13:15:34.059Z,5.45
2022-09-27T13:18:38.111Z,6.13
2022-09-27T13:21:49.461Z,5.55
2022-09-27T13:24:54.308Z,5.47
2022-09-27T13:27:58.027Z,6.95
2022-09-27T13:31:01.153Z,6.57
2022-09-27T13:34:04.443Z,6.72
2022-09-27T13:37:40.068Z,5.93
2022-09-27T13:40:43.250Z,6.40
2022-09-27T13:44:05.128Z,6.45
2022-09-27T13:47:27.416Z,6.30
2022-09-27T13:50:46.661Z,6.68
2022-09-27T13:54:06.621Z,6.90
2022-09-27T13:57:37.911Z,5.90
2022-09-27T14:00:45.482Z,3.90
2022-09-27T14:03:50.587Z,4.40
2022-09-27T14:07:00.281Z,5.07
2022-09-27T14:10:05.535Z,4.07
2022-09-27T14:13:09.727Z,3.75
2022-09-27T14:16:17.091Z,1.95
2022-09-27T14:19:22.675Z,0.90
2022-09-27T14:22:26.424Z,1.05
2022-09-27T14:28:41.231Z,0.62
2022-09-27T14:31:44.679Z,0.82
2022-09-27T14:35:31.601Z,0.50
2022-09-27T14:38:39.025Z,0.70
2022-09-27T14:41:44.783Z,0.82
2022-09-27T14:44:49.340Z,0.50
2022-09-27T14:47:52.619Z,0.50
2022-09-27T14:51:05.719Z,0.50
2022-09-27T14:54:21.940Z,0.60
2022-09-27T14:57:27.219Z,0.80
2022-09-27T15:00:36.285Z,0.60
2022-09-27T15:03:44.222Z,0.60
2022-09-27T15:06:48.344Z,0.90
2022-09-27T15:09:51.954Z,0.55
2022-09-27T15:12:59.946Z,0.65
2022-09-27T15:16:09.640Z,0.70
2022-09-27T15:19:22.201Z,0.50
2022-09-27T15:22:37.411Z,0.30
2022-09-27T15:25:56.781Z,0.47
